• Join FlightAware (Why Join?)
  • Login
  • US Flag 
07:10PM EDT


 

Airport Tracker/Info


-or-


 

Live Flight TrackerFlight Track Log ✈ N616GB ✈ 24-May-2013 ✈ CYWG - KFSD

Flight Track Log - Related Links

Times and Time Zones

All times are in EDT time to prevent confusion due to time zone crossing. See the N616GB flight status page for this flight to view local times or setup timezone preferences in your user account.

Time Position Orientation Groundspeed Altitude Reporting Facility
EDT Latitude Longitude Course Direction KTS MPH feet Rate Location/Type
03:15PM 49.8833 -97.2333 360° North 10 12 700  Level Winnipeg Center
03:18PM 49.8833 -97.2333 327° Northwest 10 12 700  Level Winnipeg Center
03:20PM 49.9000 -97.2333 360° North 20 23 700  Level Winnipeg Center
03:21PM 49.9000 -97.2333 360° North 30 35 700  Level Winnipeg Center
03:22PM 49.9167 -97.2333 360° North 10 12 800 120 Climbing Winnipeg Center
03:24PM 49.9000 -97.2333 180° South 130 150 1,100 720 Climbing Winnipeg Center
03:25PM 49.8667 -97.2000 147° Southeast 140 161 3,100 1,920 Climbing Winnipeg Center
03:26PM 49.8333 -97.1667 147° Southeast 150 173 5,000 1,920 Climbing Winnipeg Center
03:27PM 49.8000 -97.1167 136° Southeast 160 184 7,000 1,800 Climbing Winnipeg Center
03:28PM 49.7667 -97.1000 162° South 170 196 8,700 1,800 Climbing Winnipeg Center
03:29PM 49.7167 -97.1000 180° South 170 196 10,600 1,680 Climbing Winnipeg Center
03:30PM 49.6667 -97.0667 157° South 180 207 12,100 1,500 Climbing Winnipeg Center
03:31PM 49.6167 -97.0667 180° South 180 207 13,600 1,500 Climbing Winnipeg Center
03:32PM 49.5667 -97.0667 180° South 180 207 15,100 1,320 Climbing Winnipeg Center
03:33PM 49.5167 -97.0667 180° South 180 207 16,300 1,200 Climbing Winnipeg Center
03:34PM 49.4500 -97.0667 180° South 190 219 17,500 960 Climbing Winnipeg Center
03:35PM 49.4000 -97.0667 180° South 190 219 18,300 900 Climbing Winnipeg Center
03:36PM 49.3500 -97.0667 180° South 200 230 19,400 960 Climbing Winnipeg Center
03:37PM 49.3000 -97.0667 180° South 200 230 20,300 900 Climbing Winnipeg Center
03:38PM 49.2333 -97.0667 180° South 200 230 21,200 900 Climbing Winnipeg Center
03:39PM 49.1833 -97.0667 180° South 210 242 22,100 840 Climbing Winnipeg Center
03:40PM 49.1167 -97.0500 171° South 210 242 22,900 720 Climbing Winnipeg Center
03:41PM 49.0667 -97.0500 180° South 210 242 23,600 720 Climbing Winnipeg Center
03:42PM 49.0000 -97.0500 180° South 210 242 24,400 720 Climbing Winnipeg Center
03:43PM 48.9500 -97.0500 180° South 210 242 25,100 300 Climbing Winnipeg Center
03:44PM 48.8833 -97.0500 180° South 220 253 25,100 -60 Level Winnipeg Center
03:45PM 48.8167 -97.0500 180° South 240 276 25,000 -60 Descending Winnipeg Center
03:46PM 48.7500 -97.0500 180° South 250 288 25,000  Level Winnipeg Center
03:46PM 48.7403 -97.0494 178° South 248 285 25,000  Level Minneapolis Center
03:47PM 48.6683 -97.0431 177° South 255 293 25,000  Level Minneapolis Center
03:48PM 48.6106 -97.0389 177° South 259 298 25,000  Level Minneapolis Center
03:49PM 48.5289 -97.0581 189° South 250 288 25,000  Level Minneapolis Center
03:50PM 48.4586 -97.1136 208° Southwest 241 277 25,000  Level Minneapolis Center
03:51PM 48.4108 -97.1761 221° Southwest 230 265 25,000  Level Minneapolis Center
03:52PM 48.3631 -97.2403 222° Southwest 230 265 25,000  Level Minneapolis Center
03:53PM 48.3169 -97.3053 223° Southwest 229 264 25,000  Level Minneapolis Center
03:54PM 48.2711 -97.3703 223° Southwest 227 261 25,000  Level Minneapolis Center
03:55PM 48.2164 -97.4511 225° Southwest 229 264 25,000  Level Minneapolis Center
03:57PM 48.1714 -97.5158 224° Southwest 228 262 25,000  Level Minneapolis Center
03:58PM 48.1269 -97.5817 225° Southwest 227 261 25,000  Level Minneapolis Center
03:59PM 48.0825 -97.6489 225° Southwest 227 261 25,000  Level Minneapolis Center
04:00PM 48.0383 -97.7147 225° Southwest 227 261 25,000  Level Minneapolis Center
04:01PM 47.9944 -97.7825 226° Southwest 227 261 25,000  Level Minneapolis Center
04:02PM 47.9428 -97.8608 225° Southwest 225 259 25,000  Level Minneapolis Center
04:03PM 47.9014 -97.9258 226° Southwest 219 252 25,000  Level Minneapolis Center
04:04PM 47.8606 -97.9894 226° Southwest 218 251 25,000  Level Minneapolis Center
04:05PM 47.8219 -98.0514 227° Southwest 208 239 25,000 -60 Level Minneapolis Center
04:06PM 47.8000 -98.1094 241° Southwest 204 235 24,900  Descending Minneapolis Center
04:07PM 47.7333 -98.1711 212° Southwest 218 251 25,000  Climbing Minneapolis Center
04:08PM 47.6647 -98.1650 177° South 239 275 25,000 -60 Level Minneapolis Center
04:09PM 47.5825 -98.1428 170° South 248 285 24,900  Descending Minneapolis Center
04:10PM 47.5128 -98.1214 168° South 254 292 25,000  Climbing Minneapolis Center
04:11PM 47.4281 -98.0944 168° South 262 302 24,900 -60 Descending Minneapolis Center
04:12PM 47.3575 -98.0650 164° South 266 306 24,900  Level Minneapolis Center
04:13PM 47.2858 -98.0353 164° South 268 308 24,900  Level Minneapolis Center
04:14PM 47.2150 -98.0053 164° South 268 308 24,900  Level Minneapolis Center
04:15PM 47.1444 -97.9917 173° South 260 299 24,900  Level Minneapolis Center
04:16PM 47.0597 -97.9947 181° South 255 293 24,900  Level Minneapolis Center
04:17PM 46.9906 -98.0017 184° South 251 289 24,900  Level Minneapolis Center
04:18PM 46.9214 -98.0114 185° South 250 288 24,900  Level Minneapolis Center
04:19PM 46.8511 -98.0167 183° South 253 291 24,900  Level Minneapolis Center
04:21PM 46.7811 -98.0203 182° South 252 290 24,900  Level Minneapolis Center
04:22PM 46.7094 -98.0167 178° South 256 295 24,900  Level Minneapolis Center
04:23PM 46.6236 -98.0147 179° South 257 296 24,900  Level Minneapolis Center
04:24PM 46.5511 -98.0142 180° South 261 300 24,900  Level Minneapolis Center
04:25PM 46.4786 -98.0142 180° South 260 299 24,900  Level Minneapolis Center
04:26PM 46.4056 -98.0167 181° South 262 302 24,900  Level Minneapolis Center
04:27PM 46.3325 -98.0164 180° South 262 302 24,900  Level Minneapolis Center
04:28PM 46.2608 -98.0172 180° South 259 298 24,900  Level Minneapolis Center
04:29PM 46.1747 -98.0183 181° South 258 297 24,900  Level Minneapolis Center
04:30PM 46.1033 -98.0197 181° South 258 297 24,900  Level Minneapolis Center
04:31PM 46.0303 -98.0217 181° South 262 302 24,900  Level Minneapolis Center
04:32PM 45.9575 -98.0225 180° South 261 300 24,900  Level Minneapolis Center
04:33PM 45.8864 -98.0239 181° South 258 297 24,900  Level Minneapolis Center
04:34PM 45.8092 -98.0244 180° South 261 300 24,900  Level Minneapolis Center
04:35PM 45.7383 -98.0261 181° South 256 295 24,900  Level Minneapolis Center
04:36PM 45.6500 -98.0131 174° South 265 305 24,900  Level Minneapolis Center
04:37PM 45.5786 -97.9883 166° South 265 305 24,900  Level Minneapolis Center
04:38PM 45.5075 -97.9625 166° South 264 304 24,900  Level Minneapolis Center
04:39PM 45.4347 -97.9375 166° South 268 308 24,900  Level Minneapolis Center
04:40PM 45.3467 -97.9061 166° South 271 312 24,900  Level Minneapolis Center
04:41PM 45.2758 -97.8789 165° South 266 306 24,900  Level Minneapolis Center
04:42PM 45.2033 -97.8547 167° South 268 308 24,900  Level Minneapolis Center
04:43PM 45.1294 -97.8281 166° South 274 315 24,900  Level Minneapolis Center
04:44PM 45.0561 -97.8017 166° South 272 313 24,900  Level Minneapolis Center
04:45PM 44.9881 -97.7522 153° Southeast 275 316 24,900 -540 Level Minneapolis Center
04:46PM 44.9033 -97.6836 150° Southeast 292 336 23,900 -1,020 Descending Minneapolis Center
04:47PM 44.8269 -97.6275 152° Southeast 307 353 22,900 -960 Descending Minneapolis Center
04:49PM 44.7500 -97.5708 152° Southeast 312 359 22,000 -1,080 Descending Minneapolis Center
04:50PM 44.6764 -97.5136 151° Southeast 308 354 20,700 -1,500 Descending Minneapolis Center
04:51PM 44.6017 -97.4589 152° Southeast 305 351 19,000 -1,440 Descending Minneapolis Center
04:52PM 44.5400 -97.4147 153° Southeast 308 354 17,800 -1,260 Descending Minneapolis Center
04:53PM 44.4306 -97.3669 163° South 297 342 16,400 -1,440 Descending Minneapolis Center
04:54PM 44.3533 -97.3378 165° South 290 334 14,800 -1,380 Descending Minneapolis Center
04:55PM 44.2861 -97.2814 149° Southeast 285 328 13,600 -1,500 Descending Minneapolis Center
04:56PM 44.2225 -97.2317 151° Southeast 268 308 11,800 -1,620 Descending Minneapolis Center
04:57PM 44.1558 -97.2122 168° South 250 288 10,300 -1,680 Descending Minneapolis Center
04:58PM 44.0761 -97.1908 169° South 247 284 8,400 -1,500 Descending Minneapolis Center
04:59PM 44.0128 -97.1722 168° South 242 278 7,100 -1,200 Descending Minneapolis Center
05:00PM 43.9594 -97.1253 148° Southeast 236 272 5,900 -1,140 Descending Minneapolis Center
05:01PM 43.9092 -97.0664 140° Southeast 238 274 4,800 -960 Descending Minneapolis Center
05:02PM 43.8497 -97.0039 143° Southeast 231 266 4,000 -420 Descending Minneapolis Center
05:03PM 43.8011 -96.9542 144° Southeast 226 260 4,000 -240 Level Minneapolis Center
05:04PM 43.7536 -96.9033 142° Southeast 222 255 3,600 -420 Descending Minneapolis Center
05:05PM 43.7064 -96.8481 140° Southeast 221 254 3,200 -300 Descending Minneapolis Center
05:06PM 43.6658 -96.8008 140° Southeast 212 244 3,000 -480 Descending Minneapolis Center
05:07PM 43.6331 -96.7700 146° Southeast 154 177 2,300 -600 Descending Minneapolis Center
05:08PM 43.6053 -96.7525 155° Southeast 128 147 1,800 -360 Descending Minneapolis Center
05:09PM 43.5814 -96.7369 155° Southeast 121 139 1,600 -240 Descending Minneapolis Center
05:11PM 43.5820 -96.7419 North  Level Estimated